createdAt,value
2023-04-19T00:03:36.262Z,11.10
2023-04-19T00:06:05.226Z,11.10
2023-04-19T00:08:33.307Z,10.47
2023-04-19T00:11:01.246Z,10.09
2023-04-19T00:13:29.717Z,10.44
2023-04-19T00:15:57.597Z,10.44
2023-04-19T00:18:25.816Z,10.09
2023-04-19T00:20:54.039Z,10.36
2023-04-19T00:43:31.515Z,10.19
2023-04-19T00:46:02.624Z,10.09
2023-04-19T00:48:31.071Z,9.89
2023-04-19T00:50:59.733Z,10.02
2023-04-19T00:53:27.679Z,9.87
2023-04-19T00:56:00.700Z,9.96
2023-04-19T00:58:31.677Z,9.96
2023-04-19T01:01:00.545Z,9.99
2023-04-19T01:03:29.431Z,9.99
2023-04-19T01:06:10.998Z,10.04
2023-04-19T01:26:39.844Z,10.48
2023-04-19T01:29:08.731Z,10.48
2023-04-19T01:31:37.079Z,9.63
2023-04-19T01:34:05.186Z,9.74
2023-04-19T01:36:33.490Z,9.97
2023-04-19T01:39:01.846Z,9.90
2023-04-19T01:41:29.980Z,9.86
2023-04-19T01:43:58.310Z,9.85
2023-04-19T02:04:08.191Z,10.56
2023-04-19T02:06:36.882Z,10.56
2023-04-19T02:09:05.181Z,9.89
2023-04-19T02:11:33.464Z,9.86
2023-04-19T02:14:01.668Z,9.83
2023-04-19T02:16:29.629Z,9.89
2023-04-19T02:18:58.862Z,9.90
2023-04-19T02:21:27.691Z,9.91
2023-04-19T02:23:55.762Z,9.93
2023-04-19T02:26:24.831Z,9.95
2023-04-19T02:28:53.634Z,9.92
2023-04-19T02:51:29.729Z,10.39
2023-04-19T02:53:58.631Z,10.39
2023-04-19T02:56:26.784Z,9.65
2023-04-19T02:58:55.219Z,9.68
2023-04-19T03:01:23.821Z,9.60
2023-04-19T03:03:51.913Z,9.65
2023-04-19T03:06:20.174Z,9.67
2023-04-19T03:29:30.193Z,10.14
2023-04-19T03:31:59.574Z,10.14
2023-04-19T03:34:28.476Z,9.44
2023-04-19T03:36:56.494Z,9.26
2023-04-19T03:39:25.645Z,9.20
2023-04-19T03:41:54.338Z,9.20
2023-04-19T03:44:22.693Z,9.16
2023-04-19T03:46:50.936Z,9.07
2023-04-19T03:49:20.154Z,8.98
2023-04-19T04:11:57.942Z,9.85
2023-04-19T04:14:26.818Z,9.85
2023-04-19T04:16:54.777Z,9.26
2023-04-19T04:19:22.723Z,9.22
2023-04-19T04:21:50.971Z,9.25
2023-04-19T04:24:20.358Z,9.27
2023-04-19T04:26:51.688Z,9.36
2023-04-19T04:29:20.576Z,9.37
2023-04-19T04:47:08.427Z,11.11
2023-04-19T04:49:37.751Z,11.11
2023-04-19T04:52:06.737Z,11.39
2023-04-19T04:54:35.424Z,12.86
2023-04-19T04:57:05.450Z,13.86
2023-04-19T04:59:33.561Z,14.43
2023-04-19T05:02:01.672Z,14.62
2023-04-19T05:04:30.510Z,14.02
2023-04-19T05:06:58.371Z,16.48
2023-04-19T05:09:26.506Z,17.01
2023-04-19T05:14:36.747Z,14.63
2023-04-19T05:17:07.062Z,14.93
2023-04-19T05:19:44.631Z,13.98
2023-04-19T05:22:14.030Z,13.55
2023-04-19T05:24:43.193Z,13.74
2023-04-19T05:27:11.526Z,13.25
2023-04-19T05:29:40.527Z,13.06
2023-04-19T05:32:10.489Z,13.71
2023-04-19T05:37:27.984Z,13.14
2023-04-19T05:42:23.717Z,13.21
2023-04-19T05:52:17.068Z,13.94
2023-04-19T05:54:46.528Z,13.94
2023-04-19T05:57:18.921Z,13.55
2023-04-19T05:59:48.207Z,14.17
2023-04-19T06:02:16.803Z,14.25
2023-04-19T06:04:46.043Z,14.30
2023-04-19T06:07:27.377Z,14.47
2023-04-19T06:10:01.037Z,14.02
2023-04-19T06:12:29.185Z,13.80
2023-04-19T06:14:57.220Z,14.17
2023-04-19T06:17:26.406Z,13.02
2023-04-19T06:19:55.461Z,13.00
2023-04-19T06:22:23.492Z,13.49
2023-04-19T06:24:51.682Z,13.11
2023-04-19T06:27:20.280Z,13.24
2023-04-19T06:29:51.203Z,13.11
2023-04-19T06:32:19.738Z,13.51
2023-04-19T06:34:47.598Z,13.49
2023-04-19T06:37:15.469Z,13.68
2023-04-19T06:39:43.663Z,14.01
2023-04-19T06:42:12.740Z,14.17
2023-04-19T06:47:24.477Z,14.80
2023-04-19T06:55:38.388Z,14.62
2023-04-19T06:58:10.776Z,14.68
2023-04-19T07:00:38.987Z,14.77
2023-04-19T07:03:07.341Z,14.42
2023-04-19T07:05:36.953Z,14.41
2023-04-19T07:08:04.959Z,14.36
2023-04-19T07:10:33.379Z,14.69
2023-04-19T07:13:01.286Z,13.75
2023-04-19T07:15:29.665Z,13.60
2023-04-19T07:17:57.949Z,13.90
2023-04-19T07:20:28.741Z,14.13
2023-04-19T07:22:56.883Z,14.45
2023-04-19T07:25:25.180Z,14.56
2023-04-19T07:27:54.797Z,14.78
2023-04-19T07:30:23.009Z,15.23
2023-04-19T07:32:53.751Z,15.50
2023-04-19T07:35:22.398Z,15.40
2023-04-19T07:37:50.669Z,15.83
2023-04-19T07:43:12.449Z,16.10
2023-04-19T07:45:48.951Z,16.62
2023-04-19T07:53:41.773Z,21.51
2023-04-19T07:56:13.012Z,21.51
2023-04-19T07:58:41.757Z,21.55
2023-04-19T08:01:10.278Z,23.18
2023-04-19T08:03:38.846Z,22.95
2023-04-19T08:06:10.191Z,23.14
2023-04-19T08:08:39.377Z,21.71
2023-04-19T08:11:07.466Z,20.02
2023-04-19T08:13:35.318Z,21.85
2023-04-19T08:16:32.279Z,21.61
2023-04-19T08:18:52.596Z,23.32
2023-04-19T08:21:26.072Z,22.83
2023-04-19T08:24:00.576Z,23.93
2023-04-19T08:26:30.807Z,22.65
2023-04-19T08:29:03.841Z,19.97
2023-04-19T08:31:35.032Z,18.70
2023-04-19T08:34:04.352Z,19.49
2023-04-19T08:36:39.387Z,22.27
2023-04-19T08:39:29.281Z,22.96
2023-04-19T08:47:34.146Z,22.13
2023-04-19T08:50:17.455Z,21.62
2023-04-19T08:55:36.979Z,24.34
2023-04-19T09:24:20.082Z,25.04
2023-04-19T09:27:02.616Z,24.88
2023-04-19T09:29:33.979Z,23.92
2023-04-19T09:32:02.574Z,20.96
2023-04-19T09:34:32.863Z,19.54
2023-04-19T09:37:27.977Z,20.05
2023-04-19T09:40:27.105Z,19.96
2023-04-19T09:45:54.292Z,18.53
2023-04-19T09:48:25.740Z,17.79
2023-04-19T09:51:05.732Z,18.45
2023-04-19T09:53:41.505Z,17.90
2023-04-19T09:56:13.012Z,18.07
2023-04-19T09:58:49.633Z,17.92
2023-04-19T10:01:30.524Z,18.15
2023-04-19T10:04:25.831Z,18.04
2023-04-19T10:09:31.692Z,18.68
2023-04-19T10:12:11.441Z,18.96
2023-04-19T10:15:00.677Z,18.80
2023-04-19T10:17:29.465Z,19.20
2023-04-19T10:20:12.950Z,19.44
2023-04-19T10:22:42.470Z,19.35
2023-04-19T10:25:19.630Z,19.71
2023-04-19T10:27:49.651Z,19.71
2023-04-19T10:30:20.953Z,19.48
2023-04-19T10:32:56.759Z,18.86
2023-04-19T10:35:29.663Z,18.59
2023-04-19T10:38:13.458Z,18.06
2023-04-19T10:41:01.594Z,17.66
2023-04-19T10:43:35.503Z,17.75
2023-04-19T10:46:39.240Z,17.86
2023-04-19T10:49:10.348Z,18.57
2023-04-19T10:51:47.698Z,18.20
2023-04-19T10:54:32.064Z,18.17
2023-04-19T10:57:14.157Z,18.69
2023-04-19T10:59:45.031Z,18.51
2023-04-19T11:02:31.232Z,18.13
2023-04-19T11:05:01.064Z,18.08
2023-04-19T11:07:39.569Z,18.11
2023-04-19T11:10:12.484Z,18.08
2023-04-19T11:12:45.020Z,18.28
2023-04-19T11:15:15.897Z,18.41
2023-04-19T11:17:44.419Z,18.74
2023-04-19T11:20:15.216Z,18.70
2023-04-19T11:22:46.859Z,18.72
2023-04-19T11:25:23.223Z,19.14
2023-04-19T11:27:53.517Z,19.32
2023-04-19T11:30:29.409Z,18.27
2023-04-19T11:32:58.743Z,18.13
2023-04-19T11:35:29.277Z,17.76
2023-04-19T11:37:59.696Z,17.93
2023-04-19T11:40:30.342Z,18.05
2023-04-19T11:43:03.643Z,17.59
2023-04-19T11:45:40.254Z,17.25
2023-04-19T11:51:12.224Z,16.59
2023-04-19T11:53:40.633Z,16.70
2023-04-19T11:56:15.627Z,16.76
2023-04-19T11:58:52.320Z,16.81
2023-04-19T12:06:42.857Z,17.35
2023-04-19T12:09:11.936Z,17.70
2023-04-19T12:17:19.596Z,17.47
2023-04-19T12:22:45.310Z,17.57
2023-04-19T12:30:15.033Z,17.63
2023-04-19T12:38:36.161Z,17.08
2023-04-19T12:41:08.680Z,17.33
2023-04-19T12:43:37.544Z,17.18
2023-04-19T12:46:06.509Z,16.99
2023-04-19T12:48:39.999Z,17.19
2023-04-19T12:51:17.471Z,17.36
2023-04-19T12:53:49.908Z,17.38
2023-04-19T12:56:19.716Z,17.21
2023-04-19T12:58:48.338Z,17.29
2023-04-19T13:01:17.584Z,17.21
2023-04-19T13:03:46.704Z,16.31
2023-04-19T13:06:16.990Z,16.83
2023-04-19T13:08:49.715Z,16.65
2023-04-19T13:11:23.694Z,17.08
2023-04-19T13:13:52.789Z,16.62
2023-04-19T13:16:23.809Z,16.98
2023-04-19T13:18:54.835Z,16.76
2023-04-19T13:21:24.131Z,17.03
2023-04-19T13:23:55.743Z,17.17
2023-04-19T13:26:24.531Z,17.17
2023-04-19T13:28:54.652Z,17.05
2023-04-19T13:31:24.734Z,17.02
2023-04-19T13:33:54.920Z,16.71
2023-04-19T13:36:26.196Z,16.55
2023-04-19T13:38:55.157Z,16.59
2023-04-19T13:41:23.418Z,16.61
2023-04-19T13:43:51.923Z,15.99
2023-04-19T13:46:20.598Z,16.24
2023-04-19T13:54:40.855Z,16.84
2023-04-19T13:57:09.702Z,16.85
2023-04-19T13:59:38.258Z,16.68
2023-04-19T14:02:06.344Z,16.85
2023-04-19T14:04:34.871Z,16.80
2023-04-19T14:07:02.694Z,16.69
2023-04-19T14:09:30.795Z,16.72
2023-04-19T14:15:00.211Z,16.58
2023-04-19T14:17:29.015Z,16.52
2023-04-19T14:19:57.216Z,16.71
2023-04-19T14:22:25.106Z,16.95
2023-04-19T14:24:53.240Z,17.16
2023-04-19T14:27:21.154Z,17.10
2023-04-19T14:29:49.168Z,16.90
2023-04-19T14:49:45.633Z,16.60
2023-04-19T14:52:14.530Z,16.60
2023-04-19T14:54:43.487Z,15.96
2023-04-19T14:57:12.206Z,15.84
2023-04-19T14:59:40.498Z,15.89
2023-04-19T15:02:10.889Z,15.83
2023-04-19T15:27:40.746Z,15.89
2023-04-19T15:30:09.795Z,15.89
2023-04-19T15:32:38.934Z,15.22
2023-04-19T15:35:07.129Z,15.22
2023-04-19T15:37:35.392Z,15.08
2023-04-19T15:40:04.033Z,14.88
2023-04-19T15:42:32.051Z,14.72
2023-04-19T15:47:47.120Z,14.62
2023-04-19T16:00:09.544Z,14.91
2023-04-19T16:02:40.978Z,14.91
2023-04-19T16:05:09.605Z,14.28
2023-04-19T16:07:37.500Z,14.18
2023-04-19T16:10:05.963Z,14.05
2023-04-19T16:12:34.295Z,14.02
2023-04-19T16:40:22.371Z,14.18
2023-04-19T16:42:51.052Z,14.18
2023-04-19T16:45:19.094Z,13.54
2023-04-19T16:47:48.294Z,13.47
2023-04-19T16:50:16.830Z,13.38
2023-04-19T16:52:44.739Z,13.32
2023-04-19T16:55:12.698Z,13.32
2023-04-19T17:03:20.499Z,13.12
2023-04-19T17:20:33.193Z,13.37
2023-04-19T17:23:02.074Z,13.37
2023-04-19T17:25:29.927Z,12.68
2023-04-19T17:27:58.192Z,12.57
2023-04-19T17:30:26.442Z,12.59
2023-04-19T17:32:54.642Z,12.34
2023-04-19T17:35:22.572Z,12.50
2023-04-19T17:37:50.981Z,12.38
2023-04-19T17:40:19.183Z,12.29
2023-04-19T17:42:47.013Z,12.17
2023-04-19T17:50:40.033Z,11.94
2023-04-19T18:00:37.998Z,12.45
2023-04-19T18:03:07.786Z,12.45
2023-04-19T18:05:37.715Z,11.77
2023-04-19T18:08:06.228Z,11.65
2023-04-19T18:10:34.784Z,11.54
2023-04-19T18:13:03.061Z,11.52
2023-04-19T18:15:30.912Z,11.46
2023-04-19T18:17:59.524Z,11.47
2023-04-19T18:31:32.177Z,11.02
2023-04-19T18:34:02.256Z,10.86
2023-04-19T18:36:30.543Z,10.83
2023-04-19T18:38:58.835Z,10.80
2023-04-19T18:41:27.904Z,10.65
2023-04-19T18:44:24.733Z,10.71
2023-04-19T18:46:44.292Z,10.55
2023-04-19T18:52:02.930Z,10.92
2023-04-19T18:54:31.720Z,10.94
2023-04-19T18:57:21.631Z,10.28
2023-04-19T18:59:48.403Z,10.29
2023-04-19T19:02:16.734Z,10.14
2023-04-19T19:28:07.028Z,10.25
2023-04-19T19:30:40.145Z,10.25
2023-04-19T19:33:09.379Z,9.32
2023-04-19T19:35:39.656Z,9.50
2023-04-19T19:38:08.554Z,9.48
2023-04-19T19:40:51.374Z,9.45
2023-04-19T19:43:25.827Z,9.51
2023-04-19T19:58:48.302Z,9.99
2023-04-19T20:01:21.858Z,9.99
2023-04-19T20:03:51.107Z,9.19
2023-04-19T20:07:13.552Z,9.25
2023-04-19T20:09:09.432Z,9.05
2023-04-19T20:11:37.715Z,8.94
2023-04-19T20:14:06.272Z,8.90
2023-04-19T20:34:33.537Z,8.73
2023-04-19T20:37:03.948Z,8.76
2023-04-19T20:39:32.352Z,8.60
2023-04-19T20:42:01.467Z,8.57
2023-04-19T20:44:31.502Z,8.62
2023-04-19T20:46:59.705Z,8.53
2023-04-19T20:49:27.781Z,8.50
2023-04-19T20:51:56.041Z,8.48
2023-04-19T21:07:00.921Z,8.97
2023-04-19T21:09:29.910Z,8.97
2023-04-19T21:11:58.477Z,8.22
2023-04-19T21:14:26.281Z,8.34
2023-04-19T21:16:54.459Z,8.40
2023-04-19T21:19:22.393Z,8.45
2023-04-19T21:21:50.685Z,8.47
2023-04-19T21:24:32.220Z,8.42
2023-04-19T21:44:25.593Z,8.53
2023-04-19T21:46:54.171Z,8.53
2023-04-19T21:49:22.113Z,7.91
2023-04-19T21:51:51.224Z,7.86
2023-04-19T21:54:30.715Z,7.87
2023-04-19T21:57:02.305Z,7.77
2023-04-19T21:59:31.146Z,7.73
2023-04-19T22:01:59.491Z,7.69
2023-04-19T22:27:20.567Z,8.12
2023-04-19T22:29:49.132Z,8.12
2023-04-19T22:32:17.082Z,7.50
2023-04-19T22:34:45.017Z,7.52
2023-04-19T22:37:13.182Z,7.41
2023-04-19T22:39:41.194Z,7.35
2023-04-19T22:42:09.228Z,7.35
2023-04-19T23:02:19.455Z,7.82
2023-04-19T23:04:49.224Z,7.82
2023-04-19T23:07:20.081Z,7.21
2023-04-19T23:09:48.202Z,7.17
2023-04-19T23:12:16.192Z,7.17
2023-04-19T23:14:44.032Z,7.18
2023-04-19T23:17:12.186Z,7.21
2023-04-19T23:19:40.054Z,7.21
2023-04-19T23:42:38.490Z,7.73
2023-04-19T23:45:07.393Z,7.73
2023-04-19T23:47:35.257Z,7.09
2023-04-19T23:50:03.201Z,7.07
2023-04-19T23:52:31.702Z,7.03
2023-04-19T23:54:59.760Z,7.05
2023-04-19T23:57:27.646Z,7.07
2023-04-19T23:59:55.789Z,7.02
